Time;durP1;ratioP1;P1;durP2;ratioP2;P2;SDS_P1;SDS_P2;PMS_P1;PMS_P2;Temp;Humidity;BMP_temperature;BMP_pressure;BME280_temperature;BME280_humidity;BME280_pressure;Samples;Min_cycle;Max_cycle;Signal;HPM_P1;HPM_P2
2021/03/08 00:00:18;;;;;;;79.63;32.97;;;;;;;3.61;60.16;100286.13;5040697;28;20327;-70
2021/03/08 00:02:44;;;;;;;86.37;35.97;;;;;;;3.41;60.39;100279.63;5040045;28;20367;-70
2021/03/08 00:05:11;;;;;;;92.50;38.43;;;;;;;3.45;60.78;100278.47;5042583;28;20070;-70
2021/03/08 00:07:36;;;;;;;94.43;40.57;;;;;;;3.30;61.10;100279.50;5043826;28;20064;-70
2021/03/08 00:10:04;;;;;;;90.07;38.07;;;;;;;3.33;61.14;100271.47;5044599;28;20037;-71
2021/03/08 00:12:30;;;;;;;83.57;38.70;;;;;;;3.44;60.79;100270.72;5042442;28;20345;-71
2021/03/08 00:14:55;;;;;;;84.90;36.87;;;;;;;3.48;60.67;100272.19;5039864;28;20033;-70
2021/03/08 00:17:20;;;;;;;85.10;36.63;;;;;;;3.52;60.42;100271.88;5043497;28;20051;-74
2021/03/08 00:19:46;;;;;;;85.77;37.13;;;;;;;3.43;60.83;100275.13;5041633;28;20323;-70
2021/03/08 00:22:11;;;;;;;81.40;36.27;;;;;;;3.65;60.11;100271.03;5047964;28;20043;-73
2021/03/08 00:24:37;;;;;;;86.00;35.33;;;;;;;3.69;59.60;100262.03;5046027;28;20033;-73
2021/03/08 00:27:02;;;;;;;80.97;36.10;;;;;;;3.64;59.72;100275.44;5046491;28;20033;-73
2021/03/08 00:29:28;;;;;;;85.33;37.40;;;;;;;3.50;60.18;100262.47;5047032;28;20048;-70
2021/03/08 00:31:53;;;;;;;82.60;36.00;;;;;;;3.53;59.70;100259.63;5043555;28;20056;-73
2021/03/08 00:34:19;;;;;;;98.70;39.57;;;;;;;3.28;60.12;100249.16;5050590;28;20193;-73
2021/03/08 00:36:44;;;;;;;101.87;40.33;;;;;;;3.20;61.32;100257.50;5043919;28;20076;-70
2021/03/08 00:39:10;;;;;;;100.20;42.50;;;;;;;3.09;61.31;100252.97;5049306;28;20231;-73
2021/03/08 00:41:35;;;;;;;112.37;46.07;;;;;;;3.07;62.06;100239.16;5045526;28;20041;-70
2021/03/08 00:44:01;;;;;;;115.17;45.97;;;;;;;3.01;62.25;100241.34;5046347;28;20131;-73
2021/03/08 00:46:26;;;;;;;100.63;43.40;;;;;;;3.00;62.36;100237.88;5049585;28;20076;-72
2021/03/08 00:48:51;;;;;;;99.50;40.27;;;;;;;2.96;62.49;100215.47;5050793;28;20060;-70
2021/03/08 00:51:17;;;;;;;131.17;48.87;;;;;;;3.05;61.74;100225.34;5046517;28;20040;-73
2021/03/08 00:53:43;;;;;;;143.20;57.27;;;;;;;3.12;61.54;100228.38;5058460;28;20239;-71
2021/03/08 00:56:08;;;;;;;102.47;43.70;;;;;;;3.09;61.40;100221.56;5046427;28;20060;-73
2021/03/08 00:58:33;;;;;;;81.70;37.53;;;;;;;2.95;61.27;100220.81;5076472;28;20087;-70
2021/03/08 01:00:59;;;;;;;88.60;37.07;;;;;;;2.92;61.95;100216.63;5046487;28;20033;-73
2021/03/08 01:03:24;;;;;;;77.63;36.93;;;;;;;2.93;61.73;100213.06;5043953;28;20163;-70
2021/03/08 01:05:50;;;;;;;80.33;37.53;;;;;;;2.91;62.28;100204.50;5048159;28;20029;-70
2021/03/08 01:08:15;;;;;;;81.83;37.50;;;;;;;2.83;62.66;100209.38;5045745;28;20044;-70
2021/03/08 01:10:41;;;;;;;84.37;36.73;;;;;;;2.77;62.50;100183.66;5046325;28;20135;-70
2021/03/08 01:13:06;;;;;;;97.10;41.73;;;;;;;2.96;61.33;100202.41;5045755;28;20017;-70
2021/03/08 01:15:32;;;;;;;88.43;39.17;;;;;;;2.74;62.47;100195.16;5046877;28;20034;-70
2021/03/08 01:17:57;;;;;;;107.50;42.77;;;;;;;2.77;62.61;100181.03;5048993;28;20091;-70
2021/03/08 01:20:23;;;;;;;131.60;51.03;;;;;;;2.83;62.36;100194.53;5046280;28;20033;-70
2021/03/08 01:22:49;;;;;;;128.53;50.83;;;;;;;2.78;62.27;100190.56;5046299;28;20045;-70
2021/03/08 01:25:29;;;;;;;107.87;44.03;;;;;;;2.91;62.29;100193.19;5062062;28;20031;-73
2021/03/08 01:27:56;;;;;;;95.20;39.70;;;;;;;2.95;61.97;100186.81;5061670;28;20037;-70
2021/03/08 01:30:24;;;;;;;88.17;38.17;;;;;;;3.04;61.12;100187.03;5052648;28;20339;-70
2021/03/08 01:32:50;;;;;;;82.73;36.23;;;;;;;2.94;61.70;100179.91;5062993;28;20028;-70
2021/03/08 01:35:17;;;;;;;82.90;36.67;;;;;;;2.67;62.34;100174.72;5046599;28;20204;-70
2021/03/08 01:37:43;;;;;;;86.07;35.67;;;;;;;2.59;62.39;100169.19;5043479;28;20053;-73
2021/03/08 01:40:13;;;;;;;84.23;36.43;;;;;;;2.87;61.85;100180.31;5050394;28;20029;-70
2021/03/08 01:42:40;;;;;;;88.87;39.10;;;;;;;2.96;61.43;100178.84;5063278;28;20025;-73
2021/03/08 01:45:07;;;;;;;89.33;38.37;;;;;;;3.06;60.45;100164.22;5056271;28;20052;-73
2021/03/08 01:47:33;;;;;;;83.47;36.57;;;;;;;2.80;61.69;100163.34;5041612;28;20227;-70
2021/03/08 01:49:59;;;;;;;84.10;35.73;;;;;;;3.07;60.70;100173.75;5047241;28;20032;-70
2021/03/08 01:52:25;;;;;;;87.50;37.93;;;;;;;3.06;60.63;100179.91;5047765;28;20035;-71
2021/03/08 01:54:50;;;;;;;87.93;35.83;;;;;;;3.07;60.76;100178.13;5043738;28;20041;-70
2021/03/08 01:57:16;;;;;;;77.10;36.47;;;;;;;2.90;61.27;100166.19;5050872;28;20064;-70
2021/03/08 01:59:41;;;;;;;84.80;36.53;;;;;;;3.03;61.25;100172.28;5043086;28;20250;-70
2021/03/08 02:02:08;;;;;;;76.70;36.03;;;;;;;3.07;61.00;100168.50;5062253;28;20037;-73
2021/03/08 02:04:33;;;;;;;85.03;36.23;;;;;;;3.02;60.90;100165.38;5061365;28;20208;-70
2021/03/08 02:06:59;;;;;;;84.90;37.60;;;;;;;2.98;61.12;100160.44;5046690;28;20044;-70
2021/03/08 02:09:25;;;;;;;86.37;37.33;;;;;;;2.81;61.13;100158.97;5052271;28;20354;-70
2021/03/08 02:12:18;;;;;;;96.13;40.20;;;;;;;2.91;61.37;100167.03;5048332;28;20037;-70
2021/03/08 02:14:44;;;;;;;94.63;40.97;;;;;;;2.92;61.43;100161.69;5045931;28;20291;-70
2021/03/08 02:17:26;;;;;;;88.60;41.33;;;;;;;2.75;61.63;100143.69;5044305;28;20036;-70
2021/03/08 02:20:13;;;;;;;91.20;39.90;;;;;;;2.81;61.41;100153.72;5051262;28;20029;-73
2021/03/08 02:23:12;;;;;;;103.77;44.17;;;;;;;2.82;61.93;100156.25;5042215;28;20041;-73
2021/03/08 02:26:14;;;;;;;91.77;42.60;;;;;;;2.74;61.99;100158.53;5051364;28;20057;-73
2021/03/08 02:28:46;;;;;;;96.00;42.33;;;;;;;2.33;62.98;100158.66;5043148;28;20033;-73
2021/03/08 02:31:22;;;;;;;97.47;42.23;;;;;;;2.40;62.79;100154.69;5045372;28;20223;-73
2021/03/08 02:34:01;;;;;;;96.83;41.20;;;;;;;2.50;61.92;100137.47;5049795;28;20033;-70
2021/03/08 02:36:31;;;;;;;95.83;39.80;;;;;;;2.84;60.91;100162.22;5052411;28;20029;-70
2021/03/08 02:39:04;;;;;;;93.10;39.67;;;;;;;2.79;60.90;100166.06;5045560;28;20037;-73
2021/03/08 02:41:31;;;;;;;93.27;41.73;;;;;;;2.76;60.64;100174.97;5044655;28;20728;-73
2021/03/08 02:44:03;;;;;;;100.07;43.03;;;;;;;2.60;60.99;100169.06;5040869;28;20072;-73
2021/03/08 02:46:36;;;;;;;95.87;42.03;;;;;;;2.64;61.84;100167.09;5049218;28;20342;-70
2021/03/08 02:49:05;;;;;;;109.63;45.73;;;;;;;2.63;61.27;100154.97;5043167;28;20211;-73
2021/03/08 02:51:36;;;;;;;106.17;45.77;;;;;;;2.44;61.33;100150.09;5044003;28;20017;-73
2021/03/08 02:54:04;;;;;;;102.87;45.17;;;;;;;2.38;62.03;100148.72;5075935;28;20030;-73
2021/03/08 02:56:34;;;;;;;99.37;42.53;;;;;;;2.50;61.85;100147.94;5049734;28;20067;-73
2021/03/08 02:59:01;;;;;;;89.00;41.40;;;;;;;2.42;62.02;100157.22;5061815;28;20320;-73
2021/03/08 03:01:28;;;;;;;98.20;43.30;;;;;;;2.39;62.18;100160.88;5050893;28;20807;-70
2021/03/08 03:03:55;;;;;;;93.87;41.90;;;;;;;2.46;62.01;100167.38;5044225;28;20140;-73
2021/03/08 03:06:26;;;;;;;104.97;44.80;;;;;;;2.56;60.84;100167.59;5044475;28;20040;-73
2021/03/08 03:08:53;;;;;;;100.53;42.77;;;;;;;2.41;61.61;100168.59;5054977;28;20115;-73
2021/03/08 03:11:20;;;;;;;98.30;44.40;;;;;;;2.40;61.67;100164.31;5041846;28;20083;-73
2021/03/08 03:13:48;;;;;;;131.73;49.27;;;;;;;2.33;61.76;100155.19;5048332;28;20041;-70
2021/03/08 03:16:15;;;;;;;207.90;69.03;;;;;;;2.33;61.16;100152.59;5043533;28;20080;-73
2021/03/08 03:18:45;;;;;;;196.80;68.70;;;;;;;2.29;61.35;100144.09;5045034;28;20045;-70
2021/03/08 03:21:12;;;;;;;132.67;53.87;;;;;;;2.21;61.35;100152.44;5043194;28;20320;-70
2021/03/08 03:23:38;;;;;;;112.50;46.83;;;;;;;2.07;61.79;100152.47;5044718;28;20192;-73
2021/03/08 03:26:07;;;;;;;101.77;43.00;;;;;;;2.27;61.58;100150.38;5040402;28;20198;-70
2021/03/08 03:28:34;;;;;;;92.53;42.07;;;;;;;2.35;60.17;100148.09;5043116;28;20185;-73
2021/03/08 03:31:01;;;;;;;111.97;42.70;;;;;;;2.27;60.79;100139.91;5045326;28;20029;-73
2021/03/08 03:33:31;;;;;;;93.17;41.90;;;;;;;2.13;61.12;100141.66;5044599;28;20036;-70
2021/03/08 03:35:57;;;;;;;98.20;42.47;;;;;;;2.13;61.43;100135.59;5044512;28;20048;-73
2021/03/08 03:38:23;;;;;;;102.57;43.57;;;;;;;2.01;61.95;100131.97;5043442;28;20072;-70
2021/03/08 03:40:49;;;;;;;104.80;43.23;;;;;;;1.92;62.15;100130.78;5045694;28;20032;-73
2021/03/08 03:43:16;;;;;;;99.57;42.77;;;;;;;1.81;62.01;100127.16;5042421;28;20039;-68
2021/03/08 03:45:42;;;;;;;92.83;41.53;;;;;;;1.82;62.92;100118.41;5043821;28;20231;-70
2021/03/08 03:48:08;;;;;;;101.80;42.37;;;;;;;1.91;62.09;100128.25;5045532;28;20029;-70
2021/03/08 03:50:33;;;;;;;105.60;42.47;;;;;;;1.89;62.35;100128.34;5042242;28;20207;-73
2021/03/08 03:52:59;;;;;;;97.97;40.73;;;;;;;1.88;61.76;100133.69;5045171;28;20033;-70
2021/03/08 03:55:25;;;;;;;97.87;43.20;;;;;;;1.75;61.89;100135.38;5041612;28;20036;-73
2021/03/08 03:58:18;;;;;;;92.10;40.97;;;;;;;1.84;62.16;100135.66;5042862;28;20036;-73
2021/03/08 04:01:00;;;;;;;92.23;38.90;;;;;;;1.67;61.45;100130.66;5043077;28;20137;-71
2021/03/08 04:03:32;;;;;;;94.67;39.47;;;;;;;1.18;60.43;100130.22;5044178;28;20103;-71
2021/03/08 04:05:59;;;;;;;88.30;38.60;;;;;;;0.99;61.22;100129.63;5043345;28;20037;-68
2021/03/08 04:08:27;;;;;;;90.13;39.03;;;;;;;0.72;62.52;100145.16;5043528;28;20324;-71
2021/03/08 04:10:54;;;;;;;90.40;37.77;;;;;;;0.63;62.88;100143.91;5059440;28;20036;-68
2021/03/08 04:13:27;;;;;;;95.87;39.20;;;;;;;0.74;63.72;100138.91;5043779;28;20033;-68
2021/03/08 04:15:54;;;;;;;96.80;38.87;;;;;;;0.88;63.37;100106.81;5041049;28;20087;-71
2021/03/08 04:18:21;;;;;;;91.70;40.70;;;;;;;1.21;63.31;100122.22;5046674;28;20063;-68
2021/03/08 04:20:48;;;;;;;97.07;39.53;;;;;;;1.26;62.76;100121.00;5040372;28;20045;-73
2021/03/08 04:23:13;;;;;;;99.07;39.83;;;;;;;1.39;62.46;100123.69;5042946;28;20029;-70
2021/03/08 04:25:44;;;;;;;96.40;42.13;;;;;;;1.52;61.75;100126.38;5044217;28;20084;-73
2021/03/08 04:28:10;;;;;;;93.20;39.00;;;;;;;1.66;61.39;100126.38;5043901;28;20345;-71
2021/03/08 04:30:36;;;;;;;90.60;41.73;;;;;;;1.64;61.64;100124.78;5043448;28;20044;-70
2021/03/08 04:33:04;;;;;;;85.63;39.33;;;;;;;1.61;61.34;100125.81;5042935;28;20313;-70
2021/03/08 04:35:31;;;;;;;85.83;39.10;;;;;;;1.44;61.29;100131.25;5048978;28;20041;-73
2021/03/08 04:37:58;;;;;;;88.50;39.70;;;;;;;1.47;61.50;100134.50;5042694;28;20041;-71
2021/03/08 04:40:24;;;;;;;88.63;40.37;;;;;;;1.71;60.99;100142.56;5044797;28;20055;-73
2021/03/08 04:42:51;;;;;;;85.10;38.70;;;;;;;1.66;60.32;100136.81;5043832;28;20038;-70
2021/03/08 04:45:18;;;;;;;103.63;45.37;;;;;;;1.50;60.65;100129.09;5045655;28;20041;-73
2021/03/08 04:47:45;;;;;;;101.93;45.30;;;;;;;1.37;61.49;100151.66;5042185;28;20343;-73
2021/03/08 04:50:12;;;;;;;101.23;43.00;;;;;;;1.40;61.45;100148.84;5043867;28;20040;-73
2021/03/08 04:52:38;;;;;;;95.53;43.10;;;;;;;1.50;61.12;100146.53;5046718;28;20022;-71
2021/03/08 04:55:09;;;;;;;105.33;43.60;;;;;;;1.40;61.83;100129.75;5039564;28;20208;-70
2021/03/08 04:57:35;;;;;;;108.27;45.00;;;;;;;1.72;61.25;100135.59;5046824;28;20107;-70
2021/03/08 05:00:04;;;;;;;98.97;43.83;;;;;;;1.65;61.33;100134.28;5041652;28;20040;-73
2021/03/08 05:02:32;;;;;;;100.77;44.67;;;;;;;1.71;61.67;100129.53;5055942;28;20059;-73
2021/03/08 05:04:59;;;;;;;93.80;43.17;;;;;;;1.51;62.43;100125.56;5057536;28;20064;-73
2021/03/08 05:07:26;;;;;;;87.13;40.30;;;;;;;1.27;63.53;100122.69;5082946;28;20111;-73
2021/03/08 05:09:54;;;;;;;91.47;41.80;;;;;;;1.19;64.25;100122.31;5044609;28;20271;-70
2021/03/08 05:12:24;;;;;;;110.93;47.00;;;;;;;1.30;64.17;100124.28;5046404;28;20029;-70
2021/03/08 05:14:51;;;;;;;118.70;50.43;;;;;;;0.88;65.43;100119.84;5045973;28;20097;-73
2021/03/08 05:17:18;;;;;;;101.97;45.43;;;;;;;1.13;64.98;100121.84;5045957;28;20029;-70
2021/03/08 05:19:46;;;;;;;107.83;44.57;;;;;;;1.22;65.28;100124.72;5054410;28;20310;-70
2021/03/08 05:22:14;;;;;;;141.57;55.17;;;;;;;0.96;66.14;100130.66;5060713;28;20100;-70
2021/03/08 05:24:42;;;;;;;130.70;56.03;;;;;;;1.15;66.01;100133.03;5052378;28;20032;-73
2021/03/08 05:27:08;;;;;;;129.47;53.40;;;;;;;1.48;64.73;100137.94;5057429;28;20385;-70
2021/03/08 05:29:39;;;;;;;98.63;43.67;;;;;;;1.82;63.71;100137.50;5064302;28;20033;-73
2021/03/08 05:32:08;;;;;;;92.33;38.83;;;;;;;2.11;62.74;100137.47;5063294;28;20036;-73
2021/03/08 05:34:34;;;;;;;83.07;37.53;;;;;;;2.22;62.44;100135.84;5060656;28;20225;-70
2021/03/08 05:37:00;;;;;;;87.60;38.63;;;;;;;2.14;62.33;100143.31;5062057;28;20044;-73
2021/03/08 05:39:27;;;;;;;87.77;40.33;;;;;;;2.21;62.66;100135.94;5062040;28;20226;-71
2021/03/08 05:42:12;;;;;;;92.40;40.87;;;;;;;2.17;62.81;100140.50;5060339;28;20029;-73
2021/03/08 05:44:45;;;;;;;98.07;43.70;;;;;;;1.60;63.56;100153.69;5046456;28;20025;-70
2021/03/08 05:47:14;;;;;;;98.05;43.00;;;;;;;1.31;65.08;100156.41;5046108;28;20033;-71
2021/03/08 05:50:17;;;;;;;98.77;41.27;;;;;;;1.34;65.96;100149.22;5043895;28;20201;-71
2021/03/08 05:52:54;;;;;;;102.57;41.03;;;;;;;1.45;65.63;100148.56;5047304;28;20068;-73
2021/03/08 05:55:49;;;;;;;96.50;41.77;;;;;;;1.44;65.98;100152.13;5060345;28;20055;-73
2021/03/08 05:58:28;;;;;;;100.93;41.30;;;;;;;1.46;65.63;100158.09;5059809;28;20043;-70
2021/03/08 06:01:06;;;;;;;98.60;39.97;;;;;;;1.41;66.51;100158.38;5055412;28;20021;-73
2021/03/08 06:04:08;;;;;;;97.67;39.40;;;;;;;1.42;66.58;100159.22;5046286;28;20064;-70
2021/03/08 06:07:13;;;;;;;92.10;37.77;;;;;;;1.40;66.64;100154.09;5042578;28;20089;-69
2021/03/08 06:09:41;;;;;;;88.10;37.08;;;;;;;1.37;66.91;100156.88;5053691;28;20032;-70
2021/03/08 06:12:11;;;;;;;85.67;36.07;;;;;;;1.41;66.43;100158.38;5062609;28;20028;-73
2021/03/08 06:14:42;;;;;;;97.50;37.63;;;;;;;1.78;65.23;100153.47;5053061;28;20037;-73
2021/03/08 06:17:17;;;;;;;83.30;35.30;;;;;;;2.33;64.11;100161.25;5045179;28;20088;-71
2021/03/08 06:19:44;;;;;;;110.80;41.50;;;;;;;2.69;63.23;100151.94;5044640;28;20033;-73
2021/03/08 06:22:11;;;;;;;88.13;37.67;;;;;;;3.01;61.40;100166.31;5047268;28;20083;-70
2021/03/08 06:24:39;;;;;;;92.33;36.40;;;;;;;3.30;60.09;100159.13;5044801;28;20071;-73
2021/03/08 06:27:09;;;;;;;92.00;38.83;;;;;;;3.51;60.34;100157.63;5056988;28;20078;-70
2021/03/08 06:29:36;;;;;;;80.73;38.00;;;;;;;3.78;58.84;100143.53;5057577;28;20063;-73
2021/03/08 06:32:05;;;;;;;90.40;39.27;;;;;;;4.24;58.06;100169.06;5043843;28;20102;-70
2021/03/08 06:34:32;;;;;;;78.10;37.93;;;;;;;4.73;56.60;100167.13;5045006;28;20092;-70
2021/03/08 06:37:06;;;;;;;83.27;37.10;;;;;;;5.07;55.50;100160.19;5045379;28;20060;-73
2021/03/08 06:39:36;;;;;;;80.78;36.30;;;;;;;5.44;54.15;100160.00;5053690;28;20082;-70
2021/03/08 06:42:03;;;;;;;63.33;32.58;;;;;;;5.66;53.38;100162.63;5045004;28;20040;-70
2021/03/08 06:44:29;;;;;;;68.55;35.65;;;;;;;5.81;52.52;100170.25;5045435;28;20059;-74
2021/03/08 06:46:55;;;;;;;74.32;35.60;;;;;;;5.96;51.67;100146.25;5042070;28;20036;-70
2021/03/08 06:49:21;;;;;;;83.30;38.80;;;;;;;6.27;51.76;100157.78;5047157;28;20021;-74
2021/03/08 06:52:09;;;;;;;86.53;41.70;;;;;;;6.45;51.97;100146.72;5061759;28;20033;-69
2021/03/08 06:54:37;;;;;;;77.93;37.33;;;;;;;6.16;52.88;100143.81;5048625;28;20037;-70
2021/03/08 06:57:25;;;;;;;77.88;36.83;;;;;;;6.27;52.96;100147.28;5046979;28;20311;-70
2021/03/08 06:59:55;;;;;;;78.90;36.47;;;;;;;6.58;51.96;100144.75;5044087;28;20030;-68
2021/03/08 07:02:23;;;;;;;86.72;37.20;;;;;;;6.68;51.50;100149.13;5046106;28;20241;-68
2021/03/08 07:04:50;;;;;;;77.57;38.15;;;;;;;6.91;50.48;100146.38;5042254;28;20144;-71
2021/03/08 07:07:15;;;;;;;74.18;36.42;;;;;;;7.29;50.19;100146.63;5046074;28;20051;-72
2021/03/08 07:09:49;;;;;;;75.80;35.75;;;;;;;6.86;51.86;100154.66;5042802;28;20028;-71
2021/03/08 07:12:16;;;;;;;75.55;37.40;;;;;;;6.28;53.93;100141.06;5050230;28;20325;-68
2021/03/08 07:14:43;;;;;;;85.72;36.97;;;;;;;6.32;54.46;100145.09;5061572;28;20314;-68
2021/03/08 07:17:27;;;;;;;73.40;36.85;;;;;;;6.50;53.54;100132.22;5047622;28;20092;-68
2021/03/08 07:19:54;;;;;;;75.45;35.60;;;;;;;6.58;53.46;100129.81;5043642;28;20037;-71
2021/03/08 07:22:45;;;;;;;69.53;34.95;;;;;;;6.46;54.78;100140.50;5041659;28;20270;-68
2021/03/08 07:25:25;;;;;;;63.70;31.83;;;;;;;6.62;53.82;100139.13;5045866;28;20033;-68
2021/03/08 07:27:57;;;;;;;62.53;32.17;;;;;;;7.04;52.32;100139.94;5041212;28;20341;-68
2021/03/08 07:30:30;;;;;;;64.75;32.33;;;;;;;7.77;50.20;100145.16;5045315;28;20036;-68
2021/03/08 07:33:03;;;;;;;58.17;28.05;;;;;;;8.11;48.18;100138.56;5045106;28;20033;-70
2021/03/08 07:35:49;;;;;;;41.43;21.80;;;;;;;8.12;48.42;100145.50;5046929;28;20025;-68
2021/03/08 07:38:18;;;;;;;61.78;29.48;;;;;;;8.22;48.72;100119.13;5044144;28;20251;-70
2021/03/08 07:40:45;;;;;;;55.88;30.00;;;;;;;8.82;47.61;100133.91;5044572;28;20068;-71
2021/03/08 07:43:24;;;;;;;57.88;30.65;;;;;;;9.12;46.57;100132.84;5043418;28;20091;-74
2021/03/08 07:45:51;;;;;;;66.03;33.75;;;;;;;9.40;46.00;100136.41;5041664;28;20029;-73
2021/03/08 07:48:18;;;;;;;67.70;33.00;;;;;;;9.59;45.63;100122.28;5044825;28;20234;-70
2021/03/08 07:50:45;;;;;;;70.70;34.08;;;;;;;9.84;45.37;100126.03;5046557;28;20037;-70
2021/03/08 07:53:24;;;;;;;65.57;32.22;;;;;;;10.05;44.48;100118.66;5043956;28;20037;-70
2021/03/08 07:55:52;;;;;;;60.38;31.63;;;;;;;10.10;44.07;100110.28;5042556;28;20033;-74
2021/03/08 07:58:18;;;;;;;65.80;32.97;;;;;;;10.28;44.39;100100.56;5043126;28;20042;-70
2021/03/08 08:00:44;;;;;;;64.05;33.83;;;;;;;9.92;44.66;100100.53;5043749;28;20418;-74
2021/03/08 08:03:10;;;;;;;66.85;34.83;;;;;;;9.87;45.28;100099.31;5041784;28;20083;-74
2021/03/08 08:05:35;;;;;;;66.00;33.97;;;;;;;10.13;44.70;100083.53;5041811;28;20339;-70
2021/03/08 08:08:01;;;;;;;87.10;38.55;;;;;;;10.52;42.93;100092.03;5047142;28;20049;-74
2021/03/08 08:10:27;;;;;;;65.53;33.25;;;;;;;10.74;42.64;100088.91;5040443;28;20033;-74
2021/03/08 08:12:58;;;;;;;59.63;33.35;;;;;;;10.78;42.72;100086.78;5046595;28;20086;-74
2021/03/08 08:15:26;;;;;;;68.82;34.75;;;;;;;10.61;42.94;100083.19;5042417;28;20244;-70
2021/03/08 08:17:54;;;;;;;68.30;35.28;;;;;;;10.02;44.98;100079.28;5045484;28;20223;-74
2021/03/08 08:20:20;;;;;;;71.78;36.85;;;;;;;10.19;44.65;100083.75;5041753;28;20061;-74
2021/03/08 08:22:59;;;;;;;75.55;36.53;;;;;;;10.36;44.14;100074.19;5043729;28;20084;-74
2021/03/08 08:25:26;;;;;;;65.70;34.67;;;;;;;10.51;43.09;100082.44;5041104;28;20052;-71
2021/03/08 08:27:52;;;;;;;71.60;33.95;;;;;;;10.69;42.89;100074.47;5041905;28;20382;-74
2021/03/08 08:30:22;;;;;;;65.15;36.67;;;;;;;10.49;43.43;100079.09;5057728;28;20227;-74
2021/03/08 08:32:50;;;;;;;65.70;33.58;;;;;;;9.79;45.17;100062.19;5044274;28;22058;-71
2021/03/08 08:35:21;;;;;;;57.72;29.25;;;;;;;9.73;44.38;100062.78;5039975;28;20033;-70
2021/03/08 08:38:11;;;;;;;63.70;31.25;;;;;;;9.70;45.44;100065.72;5046763;28;20104;-74
2021/03/08 08:40:39;;;;;;;55.95;25.92;;;;;;;9.78;44.02;100057.88;5042637;28;20041;-70
2021/03/08 08:43:14;;;;;;;60.70;30.73;;;;;;;9.96;45.86;100050.78;5047846;28;20051;-70
2021/03/08 08:45:40;;;;;;;52.45;27.90;;;;;;;10.31;44.00;100046.50;5045774;28;20021;-74
2021/03/08 08:48:07;;;;;;;49.88;28.20;;;;;;;10.37;43.95;100046.72;5047101;28;20041;-75
2021/03/08 08:50:49;;;;;;;57.88;30.23;;;;;;;10.76;43.79;100033.13;5048348;28;20049;-74
2021/03/08 08:53:39;;;;;;;53.17;28.75;;;;;;;11.04;43.21;100041.72;5078172;28;20095;-71
2021/03/08 08:56:06;;;;;;;54.13;29.40;;;;;;;10.68;43.72;100044.50;5045444;28;20028;-74
2021/03/08 08:58:53;;;;;;;61.17;31.33;;;;;;;10.46;43.64;100027.28;5046633;28;20056;-70
2021/03/08 09:01:26;;;;;;;56.53;30.55;;;;;;;10.72;43.54;100039.72;5042632;28;20025;-71
2021/03/08 09:04:12;;;;;;;57.78;29.73;;;;;;;10.22;44.75;100033.19;5046684;28;20042;-74
2021/03/08 09:06:41;;;;;;;64.97;33.40;;;;;;;9.75;46.44;100026.44;5055886;28;20037;-70
2021/03/08 09:09:07;;;;;;;59.50;31.05;;;;;;;9.72;46.15;100024.94;5057163;28;20204;-74
2021/03/08 09:11:51;;;;;;;58.25;30.52;;;;;;;10.03;46.71;100011.34;5049236;28;20426;-70
2021/03/08 09:14:26;;;;;;;56.97;29.20;;;;;;;10.49;45.16;100023.50;5048039;28;20037;-70
2021/03/08 09:17:08;;;;;;;35.20;17.40;;;;;;;10.51;43.86;100022.38;5047557;28;20735;-71
2021/03/08 09:19:35;;;;;;;38.45;19.40;;;;;;;10.51;45.07;100019.72;5046738;28;20037;-74
2021/03/08 09:22:22;;;;;;;29.20;18.02;;;;;;;10.68;42.73;100019.84;5046866;28;20029;-74
2021/03/08 09:25:09;;;;;;;35.58;20.52;;;;;;;10.88;43.89;100010.69;5046169;28;20139;-71
2021/03/08 09:27:46;;;;;;;38.05;20.85;;;;;;;10.59;43.30;99996.94;5046163;28;20475;-71
2021/03/08 09:30:20;;;;;;;40.85;21.77;;;;;;;10.27;45.03;99998.34;5044945;28;20036;-74
2021/03/08 09:33:16;;;;;;;37.35;20.83;;;;;;;10.07;45.10;99997.66;5050143;28;20143;-70
2021/03/08 09:35:55;;;;;;;39.72;20.30;;;;;;;10.07;44.48;99986.22;5059471;28;20032;-74
2021/03/08 09:38:25;;;;;;;34.60;18.45;;;;;;;9.78;46.43;99983.84;5058643;28;20067;-70
2021/03/08 09:40:54;;;;;;;39.05;18.55;;;;;;;9.80;45.96;99973.94;5064172;28;20044;-70
2021/03/08 09:43:33;;;;;;;29.25;17.60;;;;;;;9.79;46.58;99974.91;5058600;28;20037;-70
2021/03/08 09:46:07;;;;;;;37.90;19.33;;;;;;;9.97;45.74;99972.25;5057290;28;20397;-73
2021/03/08 09:48:37;;;;;;;31.65;17.48;;;;;;;9.93;45.09;99969.91;5054603;28;20033;-74
2021/03/08 09:51:14;;;;;;;36.45;19.15;;;;;;;9.85;45.76;99969.03;5053028;28;20040;-73
2021/03/08 09:53:48;;;;;;;30.45;18.15;;;;;;;10.00;45.11;99964.84;5054154;28;20135;-71
2021/03/08 09:56:23;;;;;;;36.15;19.02;;;;;;;10.22;45.50;99971.50;5051093;28;20016;-73
2021/03/08 09:59:08;;;;;;;39.22;20.08;;;;;;;10.43;46.06;99960.59;5053240;28;20389;-74
2021/03/08 10:01:34;;;;;;;35.47;19.10;;;;;;;10.62;45.61;99962.19;5052678;28;20033;-70
2021/03/08 10:03:59;;;;;;;35.58;18.98;;;;;;;10.28;46.87;99965.59;5051524;28;20099;-71
2021/03/08 10:06:29;;;;;;;28.33;17.23;;;;;;;10.21;44.45;99953.97;5057617;28;20082;-73
2021/03/08 10:08:56;;;;;;;36.42;18.85;;;;;;;9.98;44.81;99953.59;5061812;28;20041;-74
2021/03/08 10:11:28;;;;;;;33.25;17.88;;;;;;;10.13;44.87;99935.34;5057915;28;20036;-74
2021/03/08 10:13:54;;;;;;;36.33;18.35;;;;;;;10.10;44.98;99944.44;5053734;28;20025;-74
2021/03/08 10:16:25;;;;;;;37.53;19.38;;;;;;;10.01;45.41;99944.50;5060641;28;20033;-74
2021/03/08 10:18:52;;;;;;;35.60;19.08;;;;;;;10.17;45.52;99944.63;5061633;28;20037;-71
2021/03/08 10:21:17;;;;;;;36.20;19.33;;;;;;;10.07;44.95;99926.22;5051024;28;20040;-70
2021/03/08 10:23:43;;;;;;;34.10;18.00;;;;;;;10.18;45.32;99915.38;5055182;28;20045;-71
2021/03/08 10:26:14;;;;;;;33.58;18.65;;;;;;;9.99;45.25;99926.16;5060004;28;20028;-71
2021/03/08 10:28:45;;;;;;;37.10;20.20;;;;;;;9.95;45.80;99923.97;5056962;28;20053;-70
2021/03/08 10:31:20;;;;;;;36.63;19.70;;;;;;;10.12;44.80;99909.88;5052449;28;20029;-74
2021/03/08 10:33:49;;;;;;;41.25;21.05;;;;;;;10.38;44.40;99904.63;5052811;28;20040;-82
2021/03/08 10:36:20;;;;;;;39.95;20.52;;;;;;;10.28;46.46;99899.44;5052425;28;20075;-72
2021/03/08 10:38:52;;;;;;;37.05;20.08;;;;;;;10.08;48.63;99896.13;5051750;28;20041;-77
2021/03/08 10:41:20;;;;;;;39.05;20.77;;;;;;;10.14;46.93;99895.50;5049951;28;20044;-78
2021/03/08 10:43:46;;;;;;;36.45;22.00;;;;;;;10.37;46.56;99872.03;5051508;28;20040;-78
2021/03/08 10:46:12;;;;;;;37.13;20.80;;;;;;;10.45;46.10;99885.31;5052535;28;20048;-79
2021/03/08 10:48:57;;;;;;;184.20;48.63;;;;;;;10.59;46.46;99880.41;5052426;28;20041;-73
2021/03/08 10:51:23;;;;;;;666.55;171.05;;;;;;;11.01;46.29;99881.25;5051261;28;20029;-70
2021/03/08 10:54:00;;;;;;;98.22;33.78;;;;;;;10.89;45.44;99874.59;5051664;28;20059;-69
2021/03/08 10:56:27;;;;;;;149.77;42.70;;;;;;;10.80;46.15;99880.84;5052778;28;20326;-70
2021/03/08 10:58:54;;;;;;;51.47;23.63;;;;;;;10.64;45.95;99868.38;5061079;28;20090;-77
2021/03/08 11:01:19;;;;;;;54.28;22.95;;;;;;;10.66;45.87;99870.84;5058108;28;20060;-74
2021/03/08 11:03:45;;;;;;;76.68;26.90;;;;;;;10.58;45.47;99866.34;5048716;28;20044;-75
2021/03/08 11:06:15;;;;;;;37.75;21.70;;;;;;;10.38;44.86;99843.72;5055667;28;20029;-72
2021/03/08 11:08:54;;;;;;;40.67;23.10;;;;;;;10.67;44.90;99848.69;5053557;28;20056;-69
2021/03/08 11:11:22;;;;;;;42.97;23.00;;;;;;;10.74;44.19;99844.41;5051401;28;20024;-69
2021/03/08 11:13:50;;;;;;;42.95;22.23;;;;;;;10.84;45.61;99837.97;5060695;28;20059;-67
2021/03/08 11:16:16;;;;;;;1999.90;729.65;;;;;;;11.02;53.11;99831.72;5057072;28;20055;-67
2021/03/08 11:18:43;;;;;;;53.92;28.20;;;;;;;11.08;43.60;99823.94;5052036;28;20085;-68
2021/03/08 11:21:17;;;;;;;1326.25;341.05;;;;;;;11.27;46.28;99820.16;5051436;28;20021;-67
2021/03/08 11:23:43;;;;;;;64.78;29.55;;;;;;;11.58;44.57;99811.59;5052768;28;20044;-68
2021/03/08 11:26:10;;;;;;;47.83;23.42;;;;;;;11.62;42.53;99795.16;5049992;28;20070;-70
2021/03/08 11:28:40;;;;;;;54.10;25.83;;;;;;;11.60;43.23;99804.28;5056429;28;20346;-70